Time;durP1;ratioP1;P1;durP2;ratioP2;P2;SDS_P1;SDS_P2;PMS_P1;PMS_P2;Temp;Humidity;BMP_temperature;BMP_pressure;BME280_temperature;BME280_humidity;BME280_pressure;Samples;Min_cycle;Max_cycle;Signal;HPM_P1;HPM_P2
2022/11/09 04:02:21;;;;;;;;;;;14.00;99.90;;;;;;5279298;23;19930;-68
2022/11/09 04:04:48;;;;;;;;;;;14.00;99.90;;;;;;4963304;28;20021;-68
2022/11/09 04:07:15;;;;;;;;;;;14.10;99.90;;;;;;4962883;28;20032;-66
2022/11/09 04:09:41;;;;;;;;;;;14.10;99.90;;;;;;4962233;28;19965;-64
2022/11/09 04:12:08;;;;;;;;;;;14.10;99.90;;;;;;4945759;28;20037;-66
2022/11/09 04:14:35;;;;;;;;;;;14.10;99.90;;;;;;4942376;29;19976;-66
2022/11/09 04:17:02;;;;;;;;;;;14.10;99.90;;;;;;4945873;28;19974;-66
2022/11/09 04:19:30;;;;;;;;;;;14.10;99.90;;;;;;4944070;28;19933;-66
2022/11/09 04:21:57;;;;;;;;;;;14.10;99.90;;;;;;4942216;29;19927;-66
2022/11/09 04:24:23;;;;;;;;;;;14.10;99.90;;;;;;4942925;28;19927;-66
2022/11/09 04:26:50;;;;;;;;;;;14.10;99.90;;;;;;4936303;29;19927;-65
2022/11/09 04:29:17;;;;;;;;;;;14.20;99.90;;;;;;4941250;29;19961;-66
2022/11/09 04:31:44;;;;;;;;;;;14.20;99.90;;;;;;4945862;28;19927;-66
2022/11/09 04:34:10;;;;;;;;;;;14.20;99.90;;;;;;4944799;28;19926;-66
2022/11/09 04:36:39;;;;;;;;;;;14.20;99.90;;;;;;4943178;29;19938;-66
2022/11/09 04:39:06;;;;;;;;;;;14.20;99.90;;;;;;4938384;29;19935;-66
2022/11/09 04:41:32;;;;;;;;;;;14.20;99.90;;;;;;4947300;28;19934;-67
2022/11/09 04:43:59;;;;;;;;;;;14.20;99.90;;;;;;4937937;28;19928;-66
2022/11/09 04:46:26;;;;;;;;;;;14.10;99.90;;;;;;4946980;29;19930;-66
2022/11/09 04:48:53;;;;;;;;;;;14.10;99.90;;;;;;4948677;28;19926;-62
2022/11/09 04:51:20;;;;;;;;;;;14.10;99.90;;;;;;4951092;28;19926;-65
2022/11/09 04:53:48;;;;;;;;;;;14.10;99.90;;;;;;4951028;28;20361;-65
2022/11/09 04:56:15;;;;;;;;;;;14.10;99.90;;;;;;4941394;29;20370;-66
2022/11/09 04:58:42;;;;;;;;;;;14.10;99.90;;;;;;4951571;29;19932;-65
2022/11/09 05:01:11;;;;;;;;;;;14.10;99.90;;;;;;4942950;29;19934;-66
2022/11/09 05:03:38;;;;;;;;;;;14.10;99.90;;;;;;4943948;29;19982;-66
2022/11/09 05:06:30;;;;;;;;;;;14.10;99.90;;;;;;4939908;29;20370;-66
2022/11/09 05:08:53;;;;;;;;;;;14.10;99.90;;;;;;4944393;29;19998;-66
2022/11/09 05:11:20;;;;;;;;;;;14.10;99.90;;;;;;4947282;28;20354;-65
2022/11/09 05:13:47;;;;;;;;;;;14.10;99.90;;;;;;4943292;29;19934;-65
2022/11/09 05:16:16;;;;;;;;;;;13.90;99.90;;;;;;4948883;28;19926;-65
2022/11/09 05:18:43;;;;;;;;;;;13.80;99.90;;;;;;4946898;29;20308;-66
2022/11/09 05:21:09;;;;;;;;;;;13.80;99.90;;;;;;4943584;29;19934;-65
2022/11/09 05:26:22;;;;;;;;;;;13.60;99.90;;;;;;4949405;29;19927;-73
2022/11/09 05:28:49;;;;;;;;;;;13.50;99.90;;;;;;4945498;28;20362;-65
2022/11/09 05:31:15;;;;;;;;;;;13.50;99.90;;;;;;4952852;28;19927;-65
2022/11/09 05:33:42;;;;;;;;;;;13.40;99.90;;;;;;4945511;28;19926;-65
2022/11/09 05:36:09;;;;;;;;;;;13.40;99.90;;;;;;4944874;28;19937;-66
2022/11/09 05:38:36;;;;;;;;;;;13.30;99.90;;;;;;4951926;28;19926;-65
2022/11/09 05:41:02;;;;;;;;;;;13.30;99.90;;;;;;4950998;28;19927;-65
2022/11/09 05:43:31;;;;;;;;;;;13.20;99.90;;;;;;4940913;28;19938;-65
2022/11/09 05:45:57;;;;;;;;;;;13.20;99.90;;;;;;4940782;29;20337;-66
2022/11/09 05:48:24;;;;;;;;;;;13.20;99.90;;;;;;4948779;29;19930;-65
2022/11/09 05:50:51;;;;;;;;;;;13.20;99.90;;;;;;4943129;28;19931;-64
2022/11/09 05:53:22;;;;;;;;;;;13.10;99.90;;;;;;4948631;29;19934;-65
2022/11/09 05:55:49;;;;;;;;;;;13.20;99.90;;;;;;4949344;28;19933;-65
2022/11/09 05:58:15;;;;;;;;;;;13.20;99.90;;;;;;4945166;28;19934;-65
2022/11/09 06:00:44;;;;;;;;;;;13.10;99.90;;;;;;4947535;28;19926;-65
2022/11/09 06:03:11;;;;;;;;;;;13.10;99.90;;;;;;4945172;29;19926;-68
2022/11/09 06:05:38;;;;;;;;;;;13.10;99.90;;;;;;4948248;28;19931;-66
2022/11/09 06:08:06;;;;;;;;;;;13.00;99.90;;;;;;4947392;29;19931;-66
2022/11/09 06:10:33;;;;;;;;;;;12.90;99.90;;;;;;4954270;28;19974;-66
2022/11/09 06:12:59;;;;;;;;;;;12.80;99.90;;;;;;4948777;29;19934;-68
2022/11/09 06:15:26;;;;;;;;;;;12.80;99.90;;;;;;4942759;28;20294;-66
2022/11/09 06:17:55;;;;;;;;;;;12.80;99.90;;;;;;4950490;28;19931;-66
2022/11/09 06:20:22;;;;;;;;;;;12.80;99.90;;;;;;4948852;29;20032;-67
2022/11/09 06:22:53;;;;;;;;;;;12.80;99.90;;;;;;4946758;29;19933;-67
2022/11/09 06:25:19;;;;;;;;;;;12.70;99.90;;;;;;4951880;29;19931;-66
2022/11/09 06:27:46;;;;;;;;;;;12.70;99.90;;;;;;4950075;28;19954;-66
2022/11/09 06:30:13;;;;;;;;;;;12.70;99.90;;;;;;4946165;28;19931;-67
2022/11/09 06:32:40;;;;;;;;;;;12.70;99.90;;;;;;4942644;29;19927;-65
2022/11/09 06:35:09;;;;;;;;;;;12.70;99.90;;;;;;4947334;28;20326;-67
2022/11/09 06:37:35;;;;;;;;;;;12.70;99.90;;;;;;4937789;29;19955;-67
2022/11/09 06:40:02;;;;;;;;;;;12.70;99.90;;;;;;4947497;28;20398;-67
2022/11/09 06:42:29;;;;;;;;;;;12.60;99.90;;;;;;4939482;29;19931;-67
2022/11/09 06:44:56;;;;;;;;;;;12.60;99.90;;;;;;4942724;28;19934;-66
2022/11/09 06:47:23;;;;;;;;;;;12.50;99.90;;;;;;4938560;29;20429;-66
2022/11/09 06:49:49;;;;;;;;;;;12.50;99.90;;;;;;4944741;29;20357;-67
2022/11/09 06:52:18;;;;;;;;;;;12.50;99.90;;;;;;4951842;28;19931;-66
2022/11/09 06:54:44;;;;;;;;;;;12.40;99.90;;;;;;4940012;28;20358;-66
2022/11/09 06:57:11;;;;;;;;;;;12.40;99.90;;;;;;4946490;28;20398;-66
2022/11/09 06:59:38;;;;;;;;;;;12.40;99.90;;;;;;4939701;29;19926;-68
2022/11/09 07:02:05;;;;;;;;;;;12.40;99.90;;;;;;4941745;28;19927;-66
2022/11/09 07:04:32;;;;;;;;;;;12.40;99.90;;;;;;4941962;29;19933;-66
2022/11/09 07:06:59;;;;;;;;;;;12.40;99.90;;;;;;4945144;29;19993;-67
2022/11/09 07:09:27;;;;;;;;;;;12.40;99.90;;;;;;4937061;28;19958;-67
2022/11/09 07:11:54;;;;;;;;;;;12.30;99.90;;;;;;4949820;28;19978;-66
2022/11/09 07:14:22;;;;;;;;;;;12.30;99.90;;;;;;4944959;28;19926;-66
2022/11/09 07:16:48;;;;;;;;;;;12.20;99.90;;;;;;4941770;29;19930;-66
2022/11/09 07:19:15;;;;;;;;;;;12.10;99.90;;;;;;4939774;28;19926;-67
2022/11/09 07:21:42;;;;;;;;;;;12.10;99.90;;;;;;4938437;29;20286;-66
2022/11/09 07:24:09;;;;;;;;;;;12.20;99.90;;;;;;4944286;29;19931;-66
2022/11/09 07:26:37;;;;;;;;;;;12.20;99.90;;;;;;4949829;28;19931;-67
2022/11/09 07:29:04;;;;;;;;;;;12.20;99.90;;;;;;4934934;29;19927;-65
2022/11/09 07:31:30;;;;;;;;;;;12.30;99.90;;;;;;4943148;28;19934;-66
2022/11/09 07:34:01;;;;;;;;;;;12.40;99.90;;;;;;4941432;29;20416;-66
2022/11/09 07:36:27;;;;;;;;;;;12.40;99.90;;;;;;4947566;29;20385;-66
2022/11/09 07:38:54;;;;;;;;;;;12.40;99.90;;;;;;4943022;28;19941;-66
2022/11/09 07:41:21;;;;;;;;;;;12.50;99.90;;;;;;4941703;28;19927;-66
2022/11/09 07:43:49;;;;;;;;;;;12.50;99.90;;;;;;4947843;28;19981;-66
2022/11/09 07:46:17;;;;;;;;;;;12.60;99.90;;;;;;4936901;29;19933;-67
2022/11/09 07:48:44;;;;;;;;;;;12.60;99.90;;;;;;4941680;28;19926;-66
2022/11/09 07:51:10;;;;;;;;;;;12.60;99.90;;;;;;4944630;28;19974;-66
2022/11/09 07:53:37;;;;;;;;;;;12.70;99.90;;;;;;4948016;28;19931;-67
2022/11/09 07:56:05;;;;;;;;;;;12.70;99.90;;;;;;4944493;29;19997;-66
2022/11/09 07:58:33;;;;;;;;;;;12.80;99.90;;;;;;4937311;28;20031;-67
2022/11/09 08:01:01;;;;;;;;;;;12.80;99.90;;;;;;4940304;29;19931;-66
2022/11/09 08:03:28;;;;;;;;;;;12.80;99.90;;;;;;4937907;29;19934;-66
2022/11/09 08:05:56;;;;;;;;;;;12.90;99.90;;;;;;4940059;28;19938;-66
2022/11/09 08:08:23;;;;;;;;;;;12.90;99.90;;;;;;4946309;29;19926;-66
2022/11/09 08:10:51;;;;;;;;;;;12.90;99.90;;;;;;4940625;28;19966;-66
2022/11/09 08:13:18;;;;;;;;;;;13.00;99.90;;;;;;4949432;28;19933;-67
2022/11/09 08:15:45;;;;;;;;;;;13.00;99.90;;;;;;4939797;28;19930;-67
2022/11/09 08:18:14;;;;;;;;;;;13.10;99.90;;;;;;4938923;29;19999;-67
2022/11/09 08:20:41;;;;;;;;;;;13.10;99.90;;;;;;4952552;28;19926;-66
2022/11/09 08:23:11;;;;;;;;;;;13.20;99.90;;;;;;4939511;29;19927;-66
2022/11/09 08:25:37;;;;;;;;;;;13.20;99.90;;;;;;4949234;28;19974;-67
2022/11/09 08:28:04;;;;;;;;;;;13.30;99.90;;;;;;4947512;29;19949;-67
2022/11/09 08:30:31;;;;;;;;;;;13.30;99.90;;;;;;4942979;28;19990;-66
2022/11/09 08:32:58;;;;;;;;;;;13.30;99.90;;;;;;4955864;28;20477;-66
2022/11/09 08:35:27;;;;;;;;;;;13.30;99.90;;;;;;4947404;28;19934;-66
2022/11/09 08:37:54;;;;;;;;;;;13.40;99.90;;;;;;4946759;29;19934;-67
2022/11/09 08:40:22;;;;;;;;;;;13.40;99.90;;;;;;4947517;28;19927;-66
2022/11/09 08:42:48;;;;;;;;;;;13.40;99.90;;;;;;4943400;29;20467;-67
2022/11/09 08:45:16;;;;;;;;;;;13.40;99.90;;;;;;4949615;28;19987;-66
2022/11/09 08:47:43;;;;;;;;;;;13.50;99.90;;;;;;4941888;29;20285;-66
2022/11/09 08:50:10;;;;;;;;;;;13.50;99.90;;;;;;4946983;29;19934;-66
2022/11/09 08:52:39;;;;;;;;;;;13.60;99.90;;;;;;4946347;28;19927;-68
2022/11/09 08:55:06;;;;;;;;;;;13.60;99.90;;;;;;4948756;29;19931;-66
2022/11/09 08:57:33;;;;;;;;;;;13.70;99.90;;;;;;4945758;28;19926;-66
2022/11/09 09:00:00;;;;;;;;;;;13.70;99.90;;;;;;4943448;28;19942;-66
2022/11/09 09:02:27;;;;;;;;;;;13.80;99.90;;;;;;4952777;28;19935;-66
2022/11/09 09:04:54;;;;;;;;;;;13.80;99.90;;;;;;4944518;29;19926;-67
2022/11/09 09:07:20;;;;;;;;;;;13.90;99.90;;;;;;4947705;28;19930;-66
2022/11/09 09:09:49;;;;;;;;;;;14.00;99.90;;;;;;4944165;28;19996;-66
2022/11/09 09:12:16;;;;;;;;;;;14.10;99.90;;;;;;4944528;29;19927;-66
2022/11/09 09:14:42;;;;;;;;;;;14.20;99.90;;;;;;4945380;28;19926;-67
2022/11/09 09:17:09;;;;;;;;;;;14.30;99.90;;;;;;4947455;29;19926;-66
2022/11/09 09:19:36;;;;;;;;;;;14.30;99.90;;;;;;4940075;28;19926;-66
2022/11/09 09:22:03;;;;;;;;;;;14.40;99.90;;;;;;4942034;29;19926;-67
2022/11/09 09:24:30;;;;;;;;;;;14.50;99.90;;;;;;4946710;28;19926;-67
2022/11/09 09:26:58;;;;;;;;;;;14.50;99.90;;;;;;4949508;29;19983;-66
2022/11/09 09:29:25;;;;;;;;;;;14.40;99.90;;;;;;4939568;29;20461;-66
2022/11/09 09:31:52;;;;;;;;;;;14.40;99.90;;;;;;4943083;28;19934;-67
2022/11/09 09:34:18;;;;;;;;;;;14.30;99.90;;;;;;4948369;29;20386;-66
2022/11/09 09:36:45;;;;;;;;;;;14.40;99.90;;;;;;4950150;28;19926;-66
2022/11/09 09:39:12;;;;;;;;;;;14.40;99.90;;;;;;4943057;29;19938;-67
2022/11/09 09:41:40;;;;;;;;;;;14.30;99.90;;;;;;4951530;28;20361;-67
2022/11/09 09:44:15;;;;;;;;;;;14.20;99.90;;;;;;4940961;29;19931;-66
2022/11/09 09:46:46;;;;;;;;;;;14.10;99.90;;;;;;4941516;28;19934;-66
2022/11/09 09:49:14;;;;;;;;;;;14.30;99.90;;;;;;4941388;29;19931;-66
2022/11/09 09:51:42;;;;;;;;;;;14.30;99.90;;;;;;4950108;28;20030;-66
2022/11/09 09:54:12;;;;;;;;;;;14.40;99.90;;;;;;4940707;29;19987;-67
2022/11/09 09:56:39;;;;;;;;;;;14.40;99.90;;;;;;4950426;29;20431;-66
2022/11/09 09:59:10;;;;;;;;;;;14.50;99.90;;;;;;4947672;28;19931;-66
2022/11/09 10:01:39;;;;;;;;;;;14.60;99.90;;;;;;4943243;29;19926;-66
2022/11/09 10:04:14;;;;;;;;;;;14.40;99.90;;;;;;4940360;29;19932;-66
2022/11/09 10:06:45;;;;;;;;;;;14.50;99.90;;;;;;4944409;28;19966;-67
2022/11/09 10:09:18;;;;;;;;;;;14.50;99.90;;;;;;4946830;28;19942;-66
2022/11/09 10:11:48;;;;;;;;;;;14.70;99.90;;;;;;4940484;29;20326;-66
2022/11/09 10:14:25;;;;;;;;;;;14.70;99.90;;;;;;4946514;28;19926;-67
2022/11/09 10:16:58;;;;;;;;;;;15.40;99.90;;;;;;4941806;29;19926;-66
2022/11/09 10:19:29;;;;;;;;;;;16.40;99.90;;;;;;4939804;28;19930;-66
2022/11/09 10:22:00;;;;;;;;;;;16.70;99.90;;;;;;4950706;28;19958;-66
2022/11/09 10:24:31;;;;;;;;;;;16.70;99.90;;;;;;4945023;28;20349;-66
2022/11/09 10:26:58;;;;;;;;;;;17.80;99.90;;;;;;4938353;28;20295;-66
2022/11/09 10:29:26;;;;;;;;;;;18.20;99.90;;;;;;4944691;28;20393;-67
2022/11/09 10:31:55;;;;;;;;;;;19.00;99.90;;;;;;4948406;28;20349;-67
2022/11/09 10:34:25;;;;;;;;;;;19.90;99.90;;;;;;4939059;29;19938;-67
2022/11/09 10:36:54;;;;;;;;;;;18.90;99.90;;;;;;4948001;29;19986;-65
2022/11/09 10:39:22;;;;;;;;;;;19.50;99.90;;;;;;4946870;29;19934;-66
2022/11/09 10:42:10;;;;;;;;;;;19.80;99.90;;;;;;4948679;28;19933;-66
2022/11/09 10:44:55;;;;;;;;;;;22.30;99.90;;;;;;4949230;29;20037;-67
2022/11/09 10:47:48;;;;;;;;;;;23.10;99.90;;;;;;4941342;29;19934;-66
2022/11/09 10:50:35;;;;;;;;;;;21.80;99.90;;;;;;4940425;29;19937;-67
2022/11/09 10:53:21;;;;;;;;;;;18.90;99.90;;;;;;4944265;29;19934;-67
2022/11/09 10:56:12;;;;;;;;;;;19.80;99.90;;;;;;4946966;29;19938;-66
2022/11/09 10:58:58;;;;;;;;;;;20.80;99.90;;;;;;4946270;29;19973;-67
2022/11/09 11:01:43;;;;;;;;;;;19.00;99.90;;;;;;4944851;29;20444;-67
2022/11/09 11:04:30;;;;;;;;;;;18.70;99.90;;;;;;4940350;29;19934;-66
2022/11/09 11:07:18;;;;;;;;;;;20.80;99.90;;;;;;4936664;29;20000;-67
2022/11/09 11:10:09;;;;;;;;;;;21.70;99.90;;;;;;4940347;29;20526;-67
2022/11/09 11:13:13;;;;;;;;;;;20.90;99.90;;;;;;4942621;28;19941;-67
2022/11/09 11:15:59;;;;;;;;;;;20.20;99.90;;;;;;4949316;29;19977;-67
2022/11/09 11:18:45;;;;;;;;;;;20.10;99.90;;;;;;4949032;29;20025;-68
2022/11/09 11:21:32;;;;;;;;;;;20.40;99.90;;;;;;4939820;29;20066;-66
2022/11/09 11:24:18;;;;;;;;;;;20.70;99.90;;;;;;4936068;29;19934;-67
2022/11/09 11:27:04;;;;;;;;;;;21.20;99.90;;;;;;4940405;29;20004;-66
2022/11/09 11:29:52;;;;;;;;;;;21.10;99.90;;;;;;4942199;29;20013;-67
2022/11/09 11:32:37;;;;;;;;;;;22.70;99.90;;;;;;4940534;29;20425;-67
2022/11/09 11:35:27;;;;;;;;;;;24.30;99.90;;;;;;4948622;29;19937;-68
2022/11/09 11:38:19;;;;;;;;;;;23.90;99.90;;;;;;4942901;29;19934;-67
2022/11/09 11:41:11;;;;;;;;;;;23.90;99.90;;;;;;4945130;29;19933;-67
2022/11/09 11:44:01;;;;;;;;;;;21.60;99.90;;;;;;4945712;29;19941;-67
2022/11/09 11:46:48;;;;;;;;;;;21.40;99.90;;;;;;4943063;29;19957;-66
2022/11/09 11:49:40;;;;;;;;;;;21.20;99.90;;;;;;4948981;29;19981;-67
2022/11/09 11:52:28;;;;;;;;;;;21.40;99.90;;;;;;4941223;29;19933;-66
2022/11/09 11:55:20;;;;;;;;;;;21.10;99.90;;;;;;4937815;29;20416;-66
2022/11/09 11:58:14;;;;;;;;;;;20.70;99.90;;;;;;4944177;29;20398;-67
2022/11/09 12:01:05;;;;;;;;;;;20.90;99.90;;;;;;4952599;28;20396;-68
2022/11/09 12:03:57;;;;;;;;;;;20.30;99.90;;;;;;4947033;29;20026;-68
2022/11/09 12:07:00;;;;;;;;;;;21.80;99.90;;;;;;4943655;29;20427;-67
2022/11/09 12:09:53;;;;;;;;;;;22.60;99.90;;;;;;4945198;29;19974;-66
2022/11/09 12:12:47;;;;;;;;;;;22.10;99.90;;;;;;4941858;29;20416;-68
2022/11/09 12:15:41;;;;;;;;;;;20.50;99.90;;;;;;4946359;29;19989;-66
2022/11/09 12:18:33;;;;;;;;;;;20.40;99.90;;;;;;4946481;29;19932;-68
2022/11/09 12:21:21;;;;;;;;;;;19.20;99.90;;;;;;4945272;29;20000;-67
2022/11/09 12:24:20;;;;;;;;;;;18.50;99.90;;;;;;4942001;29;20063;-68
2022/11/09 12:27:29;;;;;;;;;;;18.60;99.90;;;;;;4948198;29;19933;-66
2022/11/09 12:30:17;;;;;;;;;;;17.40;99.90;;;;;;4940113;29;19933;-66
2022/11/09 12:33:04;;;;;;;;;;;16.20;99.90;;;;;;4949113;29;19932;-66
2022/11/09 12:35:51;;;;;;;;;;;15.70;99.90;;;;;;4954072;29;19933;-66
2022/11/09 12:38:38;;;;;;;;;;;15.40;99.90;;;;;;4947196;29;19933;-66
2022/11/09 12:41:27;;;;;;;;;;;15.20;99.90;;;;;;4945407;28;20513;-66
2022/11/09 12:44:15;;;;;;;;;;;15.10;99.90;;;;;;4942024;29;19949;-66
2022/11/09 12:47:03;;;;;;;;;;;15.20;99.90;;;;;;4951807;29;19938;-67
2022/11/09 12:49:49;;;;;;;;;;;16.80;99.90;;;;;;4944297;29;19933;-67
2022/11/09 12:52:34;;;;;;;;;;;18.80;99.90;;;;;;4953944;29;20074;-68
2022/11/09 12:55:32;;;;;;;;;;;18.60;99.90;;;;;;4950511;29;19942;-67
2022/11/09 12:58:22;;;;;;;;;;;19.50;99.90;;;;;;4944462;29;19933;-67
2022/11/09 13:01:11;;;;;;;;;;;21.60;99.90;;;;;;4953559;28;19936;-67
2022/11/09 13:03:59;;;;;;;;;;;22.30;99.90;;;;;;4947034;29;20406;-67
2022/11/09 13:07:14;;;;;;;;;;;21.80;99.90;;;;;;4943486;29;20410;-68
2022/11/09 13:10:01;;;;;;;;;;;22.00;99.90;;;;;;4946958;29;19933;-66
2022/11/09 13:12:47;;;;;;;;;;;20.50;99.90;;;;;;4942036;29;19934;-66
2022/11/09 13:15:33;;;;;;;;;;;19.80;99.90;;;;;;4945999;29;19941;-67
2022/11/09 13:18:23;;;;;;;;;;;18.80;99.90;;;;;;4945220;29;19934;-66
2022/11/09 13:21:27;;;;;;;;;;;18.80;99.90;;;;;;4949758;29;20067;-66
2022/11/09 13:24:33;;;;;;;;;;;19.40;99.90;;;;;;4941279;29;19933;-67
2022/11/09 13:27:36;;;;;;;;;;;19.20;99.90;;;;;;4938021;29;19942;-68
2022/11/09 13:30:48;;;;;;;;;;;17.10;99.90;;;;;;4952464;29;19959;-67
2022/11/09 13:33:34;;;;;;;;;;;16.20;99.90;;;;;;4942022;29;20414;-66
2022/11/09 13:36:19;;;;;;;;;;;15.80;99.90;;;;;;4943892;29;19933;-67
2022/11/09 13:39:23;;;;;;;;;;;15.70;99.90;;;;;;4945475;29;19938;-66
2022/11/09 13:42:23;;;;;;;;;;;15.40;99.90;;;;;;4938262;29;19934;-66
2022/11/09 13:45:33;;;;;;;;;;;15.40;99.90;;;;;;4945247;29;19934;-67
2022/11/09 13:48:39;;;;;;;;;;;15.40;99.90;;;;;;4944373;29;19934;-67
2022/11/09 13:51:38;;;;;;;;;;;15.40;99.90;;;;;;4945795;29;19933;-67
2022/11/09 13:54:30;;;;;;;;;;;15.60;99.90;;;;;;4950460;29;19933;-66
2022/11/09 13:57:16;;;;;;;;;;;15.70;99.90;;;;;;4942220;29;19937;-66
2022/11/09 14:00:02;;;;;;;;;;;15.80;99.90;;;;;;4938918;29;19934;-66
2022/11/09 14:02:53;;;;;;;;;;;15.60;99.90;;;;;;4949811;29;20042;-66
2022/11/09 14:05:40;;;;;;;;;;;15.60;99.90;;;;;;4946642;29;19990;-66
2022/11/09 14:08:27;;;;;;;;;;;15.90;99.90;;;;;;4951858;29;19937;-67
2022/11/09 14:11:21;;;;;;;;;;;16.60;99.90;;;;;;4945858;28;19934;-67
2022/11/09 14:14:17;;;;;;;;;;;16.30;99.90;;;;;;4950452;29;20393;-66
2022/11/09 14:17:10;;;;;;;;;;;15.60;99.90;;;;;;4949124;29;20070;-66
2022/11/09 14:20:03;;;;;;;;;;;15.60;99.90;;;;;;4943299;29;19936;-67
2022/11/09 14:22:49;;;;;;;;;;;15.50;99.90;;;;;;4946411;28;20286;-67
2022/11/09 14:25:35;;;;;;;;;;;15.40;99.90;;;;;;4952721;29;20298;-67
2022/11/09 14:28:22;;;;;;;;;;;15.40;99.90;;;;;;4944524;29;20313;-66
2022/11/09 14:31:20;;;;;;;;;;;15.30;99.90;;;;;;4949142;28;19953;-67
2022/11/09 14:34:06;;;;;;;;;;;15.20;99.90;;;;;;4944253;29;19937;-67
2022/11/09 14:36:53;;;;;;;;;;;15.20;99.90;;;;;;4951896;29;20453;-68
2022/11/09 14:39:38;;;;;;;;;;;15.40;99.90;;;;;;4949460;29;19934;-67
2022/11/09 14:42:24;;;;;;;;;;;15.50;99.90;;;;;;4949575;28;19934;-68
2022/11/09 14:45:13;;;;;;;;;;;15.50;99.90;;;;;;4948426;29;19942;-68
2022/11/09 14:48:00;;;;;;;;;;;15.20;99.90;;;;;;4953474;29;20361;-67
2022/11/09 14:50:46;;;;;;;;;;;15.30;99.90;;;;;;4945693;28;19933;-68
2022/11/09 14:53:34;;;;;;;;;;;15.70;99.90;;;;;;4950910;29;19934;-68
2022/11/09 14:56:21;;;;;;;;;;;16.30;99.90;;;;;;4950083;29;20300;-68
2022/11/09 14:59:07;;;;;;;;;;;16.20;99.90;;;;;;4944781;29;19962;-71
2022/11/09 15:01:57;;;;;;;;;;;15.90;99.90;;;;;;4951589;28;20389;-71
2022/11/09 15:04:53;;;;;;;;;;;16.30;99.90;;;;;;4946519;29;19933;-70
2022/11/09 15:07:38;;;;;;;;;;;15.90;99.90;;;;;;4948351;29;20389;-71
2022/11/09 15:10:28;;;;;;;;;;;15.70;99.90;;;;;;4945280;29;19938;-67
2022/11/09 15:13:13;;;;;;;;;;;15.50;99.90;;;;;;4942661;29;20305;-70
2022/11/09 15:15:59;;;;;;;;;;;15.60;99.90;;;;;;4952637;29;20054;-70
2022/11/09 15:18:45;;;;;;;;;;;15.60;99.90;;;;;;4949192;29;19933;-71
2022/11/09 15:21:35;;;;;;;;;;;15.30;99.90;;;;;;4944431;29;20054;-70
2022/11/09 15:24:21;;;;;;;;;;;15.20;99.90;;;;;;4943955;29;20070;-70
2022/11/09 15:27:22;;;;;;;;;;;15.40;99.90;;;;;;4945776;29;20409;-70
2022/11/09 15:30:22;;;;;;;;;;;15.50;99.90;;;;;;4943535;29;19973;-70
2022/11/09 15:33:18;;;;;;;;;;;15.10;99.90;;;;;;4945783;29;19937;-70
2022/11/09 15:36:17;;;;;;;;;;;14.80;99.90;;;;;;4948399;29;20160;-72
2022/11/09 15:39:07;;;;;;;;;;;14.60;99.90;;;;;;4941481;29;20397;-75
2022/11/09 15:41:52;;;;;;;;;;;14.40;99.90;;;;;;4949842;28;19933;-68
2022/11/09 15:44:38;;;;;;;;;;;14.00;99.90;;;;;;4945773;29;19941;-73
2022/11/09 15:47:27;;;;;;;;;;;13.90;99.90;;;;;;4941144;29;19933;-64
2022/11/09 15:50:16;;;;;;;;;;;13.80;99.90;;;;;;4946362;29;19934;-66
2022/11/09 15:53:01;;;;;;;;;;;13.60;99.90;;;;;;4943860;29;19933;-75
2022/11/09 15:55:47;;;;;;;;;;;13.50;99.90;;;;;;4952529;29;19934;-63
2022/11/09 15:58:32;;;;;;;;;;;13.50;99.90;;;;;;4942437;29;19933;-66
2022/11/09 16:01:17;;;;;;;;;;;13.30;99.90;;;;;;4950115;28;19941;-65
2022/11/09 16:04:03;;;;;;;;;;;13.30;99.90;;;;;;4950230;29;20036;-62
2022/11/09 16:06:49;;;;;;;;;;;13.20;99.90;;;;;;4939551;29;19936;-63
2022/11/09 16:09:38;;;;;;;;;;;13.10;99.90;;;;;;4941199;29;19934;-74
2022/11/09 16:12:23;;;;;;;;;;;13.10;99.90;;;;;;4939609;29;19937;-63
2022/11/09 16:15:10;;;;;;;;;;;13.00;99.90;;;;;;4944418;29;19933;-65
2022/11/09 16:17:55;;;;;;;;;;;13.00;99.90;;;;;;4942370;29;19942;-64
2022/11/09 16:20:40;;;;;;;;;;;12.90;99.90;;;;;;4943491;29;19933;-67
2022/11/09 16:23:28;;;;;;;;;;;12.90;99.90;;;;;;4947325;29;20050;-65
2022/11/09 16:26:13;;;;;;;;;;;12.80;99.90;;;;;;4940926;29;19985;-73
2022/11/09 16:28:59;;;;;;;;;;;12.80;99.90;;;;;;4948033;29;19937;-74
2022/11/09 16:31:44;;;;;;;;;;;12.70;99.90;;;;;;4950611;28;19938;-65
2022/11/09 16:34:30;;;;;;;;;;;12.70;99.90;;;;;;4942142;29;19933;-66
2022/11/09 16:37:15;;;;;;;;;;;12.70;99.90;;;;;;4950605;29;20290;-65
2022/11/09 16:40:05;;;;;;;;;;;12.60;99.90;;;;;;4941887;29;19934;-65
2022/11/09 16:42:51;;;;;;;;;;;12.60;99.90;;;;;;4937433;29;19933;-65
2022/11/09 16:45:36;;;;;;;;;;;12.60;99.90;;;;;;4940444;28;20420;-65
2022/11/09 16:48:22;;;;;;;;;;;12.60;99.90;;;;;;4949990;29;20413;-66
2022/11/09 16:51:07;;;;;;;;;;;12.60;99.90;;;;;;4945759;29;19942;-65
2022/11/09 16:53:53;;;;;;;;;;;12.70;99.90;;;;;;4950021;29;20069;-65
2022/11/09 16:56:39;;;;;;;;;;;12.70;99.90;;;;;;4944753;29;19985;-66
2022/11/09 16:59:25;;;;;;;;;;;12.80;99.90;;;;;;4952794;29;19933;-66
2022/11/09 17:02:10;;;;;;;;;;;12.80;99.90;;;;;;4939018;29;19942;-65
2022/11/09 17:04:56;;;;;;;;;;;12.70;99.90;;;;;;4955313;29;20017;-65
2022/11/09 17:07:41;;;;;;;;;;;12.60;99.90;;;;;;4949287;29;20012;-65
2022/11/09 17:10:26;;;;;;;;;;;12.60;99.90;;;;;;4944566;29;20062;-66
2022/11/09 17:13:14;;;;;;;;;;;12.50;99.90;;;;;;4938956;29;19933;-66
2022/11/09 17:16:02;;;;;;;;;;;12.40;99.90;;;;;;4944089;29;20405;-65
2022/11/09 17:18:48;;;;;;;;;;;12.30;99.90;;;;;;4947567;29;19954;-64
2022/11/09 17:21:33;;;;;;;;;;;12.30;99.90;;;;;;4946133;29;19933;-66
2022/11/09 17:24:19;;;;;;;;;;;12.20;99.90;;;;;;4951384;29;19937;-64
2022/11/09 17:27:04;;;;;;;;;;;12.10;99.90;;;;;;4953634;29;20293;-66
2022/11/09 17:29:51;;;;;;;;;;;12.00;99.90;;;;;;4951083;29;19942;-65
2022/11/09 17:32:36;;;;;;;;;;;11.90;99.90;;;;;;4946638;29;20028;-66
2022/11/09 17:35:23;;;;;;;;;;;11.80;99.90;;;;;;4943442;29;19933;-70
2022/11/09 17:38:08;;;;;;;;;;;11.70;99.90;;;;;;4941945;29;20317;-66
2022/11/09 17:40:54;;;;;;;;;;;11.70;99.90;;;;;;4952205;29;19934;-65
2022/11/09 17:43:40;;;;;;;;;;;11.60;99.90;;;;;;4952623;29;19932;-65
2022/11/09 17:46:27;;;;;;;;;;;11.60;99.90;;;;;;4954138;29;19937;-66
2022/11/09 17:49:12;;;;;;;;;;;11.50;99.90;;;;;;4941219;29;20075;-64
2022/11/09 17:51:58;;;;;;;;;;;11.60;99.90;;;;;;4952887;28;20460;-66
2022/11/09 17:54:43;;;;;;;;;;;11.50;99.90;;;;;;4942687;29;19934;-66
2022/11/09 17:57:28;;;;;;;;;;;11.50;99.90;;;;;;4938315;29;19934;-69
2022/11/09 18:00:14;;;;;;;;;;;11.40;99.90;;;;;;4944393;29;20061;-71
2022/11/09 18:03:01;;;;;;;;;;;11.40;99.90;;;;;;4951103;28;20029;-68
2022/11/09 18:05:46;;;;;;;;;;;11.50;99.90;;;;;;4952495;29;20066;-67
2022/11/09 18:08:32;;;;;;;;;;;11.60;99.90;;;;;;4943982;29;19934;-66
2022/11/09 18:11:17;;;;;;;;;;;11.60;99.90;;;;;;4940198;29;19949;-65
2022/11/09 18:14:03;;;;;;;;;;;11.60;99.90;;;;;;4945388;29;19951;-65
2022/11/09 18:16:48;;;;;;;;;;;11.60;99.90;;;;;;4942459;29;19946;-66
2022/11/09 18:19:35;;;;;;;;;;;11.70;99.90;;;;;;4944114;29;19933;-65
2022/11/09 18:22:22;;;;;;;;;;;11.70;99.90;;;;;;4945337;28;20056;-66
2022/11/09 18:25:08;;;;;;;;;;;11.70;99.90;;;;;;4951111;29;19937;-65
2022/11/09 18:27:54;;;;;;;;;;;11.70;99.90;;;;;;4944328;29;20035;-66
2022/11/09 18:30:40;;;;;;;;;;;11.70;99.90;;;;;;4950901;28;20042;-66
2022/11/09 18:33:25;;;;;;;;;;;11.90;99.90;;;;;;4953339;29;19933;-66
2022/11/09 18:36:14;;;;;;;;;;;11.90;99.90;;;;;;4950369;29;19994;-66
2022/11/09 18:39:01;;;;;;;;;;;11.90;99.90;;;;;;4951725;29;19937;-67
2022/11/09 18:41:47;;;;;;;;;;;11.90;99.90;;;;;;4950309;28;19941;-66
2022/11/09 18:44:32;;;;;;;;;;;12.00;99.90;;;;;;4950590;29;20010;-65
2022/11/09 18:47:19;;;;;;;;;;;11.90;99.90;;;;;;4951134;29;20016;-67
2022/11/09 18:50:04;;;;;;;;;;;11.90;99.90;;;;;;4939330;29;19934;-65
2022/11/09 18:52:51;;;;;;;;;;;11.90;99.90;;;;;;4952537;28;19936;-66
2022/11/09 18:55:36;;;;;;;;;;;11.80;99.90;;;;;;4952694;29;20400;-65
2022/11/09 18:58:22;;;;;;;;;;;11.90;99.90;;;;;;4942239;29;19933;-65
2022/11/09 19:01:07;;;;;;;;;;;11.80;99.90;;;;;;4943148;29;20377;-65
2022/11/09 19:03:54;;;;;;;;;;;11.80;99.90;;;;;;4945878;29;20084;-65
2022/11/09 19:06:39;;;;;;;;;;;11.70;99.90;;;;;;4944915;29;19938;-66
2022/11/09 19:09:29;;;;;;;;;;;11.70;99.90;;;;;;4944038;28;19949;-66
2022/11/09 19:12:14;;;;;;;;;;;11.70;99.90;;;;;;4944494;28;20078;-66
2022/11/09 19:15:00;;;;;;;;;;;11.60;99.90;;;;;;4951479;29;20420;-65
2022/11/09 19:17:46;;;;;;;;;;;11.60;99.90;;;;;;4949626;29;20021;-64
2022/11/09 19:20:31;;;;;;;;;;;11.60;99.90;;;;;;4947706;29;19933;-66
2022/11/09 19:23:17;;;;;;;;;;;11.50;99.90;;;;;;4939853;29;19933;-65
2022/11/09 19:26:03;;;;;;;;;;;11.50;99.90;;;;;;4949229;29;19992;-65
2022/11/09 19:28:49;;;;;;;;;;;11.50;99.90;;;;;;4950938;29;19934;-74